Main page
METAR-TAF:

METAR-TAF

Airports :

Ghriss Airport

Ghriss, Algeria

latitude: 35-12N, longitude: 000-08E, elevation: 514 m

Current weather observation

The report was made 48 minutes ago, at 20:00 UTC
Wind 7 kt from the Northeast
Temperature 5°C
Humidity 81%
Pressure 1025 hPa
Visibility 10 km or more
Few clouds at a height of 2300 ft
Scattered clouds at a height of 2600 ft

METAR: DAOV 212000Z 04007KT 9999 FEW023 SCT026 05/02 Q1025

Time: 21:48 (20:48 UTC)

Forecast

The report was made 3 hours and 48 minutes ago, at 17:00 UTC
Forecast valid from 21 at 18 UTC to 22 at 03 UTC
Wind 5 kt from the North
Visibility 10 km or more
Scattered clouds at a height of 2300 ft
Scattered clouds at a height of 2600 ft
Becoming
from 21 at 19 UTC to 21 at 21 UTC
Wind 2 kt from variable directions

TAF: DAOV 211700Z 2118/2203 36005KT 9999 SCT023 SCT026 BECMG 2119/2121 VRB02KT

Weather observations and forecasts of more than 4000 airports (METAR and TAF reports).

The available stations are represented by yellow and red dots on the map.

Hover mouse over dot to see the name of the station.

Then click to see weather observations and forecasts.

To change the map : click on the green buttons with a black cross to zoom in, on the green button with a dash to zoom out, or on the green arrows for adjacent maps.


METAR-TAF: